Time;durP1;ratioP1;P1;durP2;ratioP2;P2;SDS_P1;SDS_P2;PMS_P1;PMS_P2;Temp;Humidity;BMP_temperature;BMP_pressure;BME280_temperature;BME280_humidity;BME280_pressure;Samples;Min_cycle;Max_cycle;Signal;HPM_P1;HPM_P2
2023/01/19 00:08:19;;;;;;;22.60;13.10;;;-0.90;99.90;;;;;;5462743;23;20509;-87
2023/01/19 00:10:49;;;;;;;19.07;12.47;;;-0.90;99.90;;;;;;5020946;28;20546;-89
2023/01/19 00:18:27;;;;;;;20.60;13.20;;;-1.00;99.90;;;;;;5420624;23;20473;-88
2023/01/19 00:20:54;;;;;;;20.00;10.53;;;-1.00;99.90;;;;;;5041610;28;20427;-80
2023/01/19 00:31:08;;;;;;;15.47;9.80;;;-1.00;99.90;;;;;;5313858;23;20466;-82
2023/01/19 00:33:35;;;;;;;19.47;9.93;;;-1.00;99.90;;;;;;5039291;28;20450;-80
2023/01/19 00:59:21;;;;;;;18.00;10.90;;;-1.00;99.90;;;;;;6066042;23;21584;-79
2023/01/19 01:48:30;;;;;;;17.93;11.63;;;-1.20;99.90;;;;;;5426324;23;20525;-88
2023/01/19 03:05:42;;;;;;;11.30;9.57;;;-1.70;99.90;;;;;;5531605;23;20491;-85
2023/01/19 03:08:16;;;;;;;12.70;6.73;;;-1.50;99.90;;;;;;5127861;23;20491;-78
2023/01/19 03:10:53;;;;;;;12.43;8.13;;;-1.80;99.90;;;;;;5088402;23;20511;-76
2023/01/19 03:13:27;;;;;;;13.30;8.13;;;-1.70;99.90;;;;;;5008866;28;20946;-76
2023/01/19 03:16:00;;;;;;;11.53;8.57;;;-1.70;99.90;;;;;;5009118;28;20481;-77
2023/01/19 03:18:31;;;;;;;19.83;9.20;;;-1.70;99.90;;;;;;5009819;28;20820;-77
2023/01/19 03:21:03;;;;;;;16.97;10.03;;;-1.70;99.90;;;;;;5009991;28;20520;-77
2023/01/19 03:23:32;;;;;;;13.67;9.17;;;-1.80;99.90;;;;;;5008513;28;20472;-77
2023/01/19 03:26:01;;;;;;;13.30;8.53;;;-1.80;99.90;;;;;;5008466;28;20448;-77
2023/01/19 03:28:30;;;;;;;16.00;10.20;;;-1.80;99.90;;;;;;5007709;28;20459;-77
2023/01/19 03:31:01;;;;;;;18.33;10.50;;;-1.80;99.90;;;;;;5006797;28;20499;-77
2023/01/19 03:33:31;;;;;;;19.60;10.50;;;-1.80;99.90;;;;;;5007717;28;20522;-76
2023/01/19 03:36:04;;;;;;;19.50;13.37;;;-1.80;99.90;;;;;;5007942;28;20835;-77
2023/01/19 03:38:35;;;;;;;18.57;9.63;;;-1.80;99.90;;;;;;5008098;28;20853;-77
2023/01/19 03:41:05;;;;;;;20.03;12.13;;;-1.90;99.90;;;;;;5007834;28;20439;-77
2023/01/19 03:43:33;;;;;;;20.20;12.97;;;-1.90;99.90;;;;;;5007826;28;20968;-77
2023/01/19 03:46:00;;;;;;;16.40;11.40;;;-1.90;99.90;;;;;;5008021;28;20435;-77
2023/01/19 03:48:27;;;;;;;20.37;11.87;;;-1.90;99.90;;;;;;4998635;28;20866;-77
2023/01/19 03:50:55;;;;;;;15.53;11.53;;;-1.90;99.90;;;;;;4988289;28;20455;-77
2023/01/19 03:53:23;;;;;;;15.83;12.10;;;-2.00;99.90;;;;;;4988050;28;20495;-76
2023/01/19 03:55:53;;;;;;;20.73;12.43;;;-2.00;99.90;;;;;;4987869;28;20452;-76
2023/01/19 03:58:20;;;;;;;19.07;11.80;;;-1.90;99.90;;;;;;4988142;28;20462;-76
2023/01/19 04:00:47;;;;;;;14.57;11.50;;;-2.00;99.90;;;;;;4988032;28;20486;-77
2023/01/19 04:03:16;;;;;;;20.00;13.70;;;-2.00;99.90;;;;;;4988102;28;20448;-77
2023/01/19 04:05:44;;;;;;;19.67;10.97;;;-2.00;99.90;;;;;;4987367;28;20472;-77
2023/01/19 04:08:12;;;;;;;15.53;11.80;;;-2.00;99.90;;;;;;4990791;28;20661;-77
2023/01/19 04:10:40;;;;;;;20.03;11.93;;;-2.00;99.90;;;;;;4991377;28;20527;-77
2023/01/19 04:13:07;;;;;;;19.30;12.07;;;-2.00;99.90;;;;;;4991409;28;20499;-76
2023/01/19 04:15:34;;;;;;;17.30;12.60;;;-2.00;99.90;;;;;;4991384;28;20463;-76
2023/01/19 04:18:02;;;;;;;19.67;12.97;;;-2.00;99.90;;;;;;4991741;28;20475;-77
2023/01/19 04:20:29;;;;;;;17.77;12.37;;;-2.20;99.90;;;;;;4991511;28;20907;-77
2023/01/19 04:23:00;;;;;;;23.13;12.40;;;-2.00;99.90;;;;;;4990596;28;20463;-77
2023/01/19 04:25:27;;;;;;;17.33;12.07;;;-2.10;99.90;;;;;;4991366;28;20868;-76
2023/01/19 04:27:57;;;;;;;17.83;10.73;;;-2.10;99.90;;;;;;4991705;28;20459;-76
2023/01/19 04:30:24;;;;;;;19.70;13.10;;;-2.10;99.90;;;;;;4991538;28;20953;-77
2023/01/19 04:32:51;;;;;;;17.30;11.40;;;-2.10;99.90;;;;;;4991738;28;20488;-77
2023/01/19 04:35:18;;;;;;;21.10;13.27;;;-2.10;99.90;;;;;;4997355;28;20940;-77
2023/01/19 04:37:44;;;;;;;16.73;11.33;;;-2.10;99.90;;;;;;4996481;28;20469;-77
2023/01/19 04:40:12;;;;;;;17.47;12.73;;;-2.10;99.90;;;;;;4991192;28;20902;-76
2023/01/19 04:42:38;;;;;;;27.63;11.83;;;-2.10;99.90;;;;;;4991492;28;20898;-76
2023/01/19 04:45:08;;;;;;;23.20;15.60;;;-2.10;99.90;;;;;;4993951;28;20457;-77
2023/01/19 04:47:35;;;;;;;25.60;14.10;;;-2.10;99.90;;;;;;4993709;28;20455;-77
2023/01/19 04:50:01;;;;;;;20.57;13.80;;;-2.10;99.90;;;;;;4993571;28;20453;-77
2023/01/19 04:52:33;;;;;;;22.60;13.33;;;-2.20;99.90;;;;;;4994037;28;20486;-77
2023/01/19 04:55:00;;;;;;;29.57;13.73;;;-2.20;99.90;;;;;;4992894;28;20544;-77
2023/01/19 04:57:27;;;;;;;26.10;13.07;;;-2.20;99.90;;;;;;4990154;28;20468;-77
2023/01/19 04:59:54;;;;;;;19.70;13.30;;;-2.10;99.90;;;;;;4991043;28;20460;-73
2023/01/19 05:02:22;;;;;;;22.00;14.00;;;-2.10;99.90;;;;;;4991144;28;20455;-73
2023/01/19 05:04:49;;;;;;;20.77;14.40;;;-2.20;99.90;;;;;;4990581;28;20492;-76
2023/01/19 05:07:16;;;;;;;20.53;14.83;;;-2.20;99.90;;;;;;4992112;28;20448;-76
2023/01/19 05:09:43;;;;;;;19.67;12.73;;;-2.20;99.90;;;;;;4986593;28;20496;-77
2023/01/19 05:12:10;;;;;;;23.37;12.23;;;-2.30;99.90;;;;;;4993761;28;20962;-77
2023/01/19 05:14:37;;;;;;;18.90;12.80;;;-2.20;99.90;;;;;;4985214;28;20522;-77
2023/01/19 05:17:04;;;;;;;22.00;13.70;;;-2.20;99.90;;;;;;4990939;28;20467;-77
2023/01/19 05:19:32;;;;;;;16.93;11.90;;;-2.20;99.90;;;;;;4993169;28;20464;-78
2023/01/19 05:21:59;;;;;;;23.63;13.83;;;-2.20;99.90;;;;;;4993054;28;20456;-77
2023/01/19 05:24:26;;;;;;;27.07;14.80;;;-2.20;99.90;;;;;;4997973;28;20448;-80
2023/01/19 05:26:52;;;;;;;18.17;13.40;;;-2.20;99.90;;;;;;4993255;28;20459;-77
2023/01/19 05:29:19;;;;;;;22.60;14.07;;;-2.20;99.90;;;;;;4989733;28;20467;-74
2023/01/19 05:31:46;;;;;;;25.33;13.60;;;-2.20;99.90;;;;;;4990253;28;20459;-74
2023/01/19 05:34:14;;;;;;;23.20;13.50;;;-2.20;99.90;;;;;;4990179;28;21004;-74
2023/01/19 05:36:42;;;;;;;22.80;14.60;;;-2.30;99.90;;;;;;4990123;28;20452;-75
2023/01/19 05:39:09;;;;;;;23.77;13.90;;;-2.20;99.90;;;;;;4989647;28;20976;-75
2023/01/19 05:41:36;;;;;;;26.27;14.17;;;-2.10;99.90;;;;;;4990038;28;20456;-75
2023/01/19 05:44:03;;;;;;;24.17;12.60;;;-2.20;99.90;;;;;;4990087;28;20456;-74
2023/01/19 05:46:30;;;;;;;27.27;14.83;;;-2.30;99.90;;;;;;4988601;28;20487;-75
2023/01/19 05:48:57;;;;;;;22.83;15.50;;;-2.20;99.90;;;;;;4989715;28;20485;-74
2023/01/19 05:51:24;;;;;;;21.60;12.33;;;-2.30;99.90;;;;;;4994312;28;20862;-78
2023/01/19 05:53:52;;;;;;;20.33;13.10;;;-2.10;99.90;;;;;;4986280;28;20880;-80
2023/01/19 05:56:19;;;;;;;28.10;14.47;;;-2.20;99.90;;;;;;4995067;28;21066;-79
2023/01/19 05:58:46;;;;;;;29.40;14.20;;;-2.30;99.90;;;;;;4995673;28;20519;-79
2023/01/19 06:01:13;;;;;;;24.73;14.47;;;-2.30;99.90;;;;;;4995552;28;20618;-80
2023/01/19 06:03:40;;;;;;;24.90;11.03;;;-2.10;99.90;;;;;;4994278;28;20480;-79
2023/01/19 06:06:07;;;;;;;21.13;12.60;;;-2.20;99.90;;;;;;4994629;28;20460;-80
2023/01/19 06:08:34;;;;;;;26.10;14.40;;;-1.90;99.90;;;;;;4994246;28;20444;-81
2023/01/19 06:11:05;;;;;;;21.47;12.47;;;-2.10;99.90;;;;;;4994214;28;20479;-80
2023/01/19 06:13:31;;;;;;;17.37;13.00;;;-1.80;99.90;;;;;;4993940;28;20484;-79
2023/01/19 06:15:59;;;;;;;22.20;14.30;;;-2.00;99.90;;;;;;4995276;28;20794;-81
2023/01/19 06:18:25;;;;;;;18.37;13.07;;;-2.10;99.90;;;;;;4992158;28;20471;-81
2023/01/19 06:20:57;;;;;;;16.93;11.37;;;-2.20;99.90;;;;;;4991176;28;20486;-80
2023/01/19 06:23:24;;;;;;;24.80;13.63;;;-2.10;99.90;;;;;;4991571;28;20481;-80
2023/01/19 06:25:51;;;;;;;22.97;14.67;;;-2.10;99.90;;;;;;4996966;28;20813;-79
2023/01/19 06:28:19;;;;;;;28.20;13.70;;;-2.20;99.90;;;;;;5000223;28;20476;-81
2023/01/19 06:30:48;;;;;;;23.23;13.13;;;-2.20;99.90;;;;;;4998761;28;20468;-79
2023/01/19 06:33:15;;;;;;;23.30;13.00;;;-2.30;99.90;;;;;;4997776;28;20550;-81
2023/01/19 06:35:43;;;;;;;22.80;14.20;;;-2.30;99.90;;;;;;4999027;28;20450;-79
2023/01/19 06:38:10;;;;;;;22.70;15.80;;;-2.30;99.90;;;;;;4992719;28;20460;-79
2023/01/19 06:40:36;;;;;;;25.60;15.90;;;-2.30;99.90;;;;;;4995574;28;20462;-78
2023/01/19 06:43:03;;;;;;;21.13;13.60;;;-2.30;99.90;;;;;;4995120;28;20446;-79
2023/01/19 06:45:32;;;;;;;32.23;14.23;;;-2.10;99.90;;;;;;4995228;28;20731;-79
2023/01/19 06:47:58;;;;;;;23.60;13.90;;;-2.20;99.90;;;;;;4997206;28;20479;-79
2023/01/19 06:50:25;;;;;;;28.13;15.70;;;-2.20;99.90;;;;;;4995971;28;20475;-79
2023/01/19 06:52:52;;;;;;;26.00;13.43;;;-2.00;99.90;;;;;;4995351;28;20476;-79
2023/01/19 06:55:19;;;;;;;21.60;13.20;;;-2.00;99.90;;;;;;4995543;28;20795;-79
2023/01/19 06:57:46;;;;;;;23.80;14.43;;;-2.10;99.90;;;;;;4995739;28;20446;-79
2023/01/19 07:00:14;;;;;;;23.73;14.23;;;-2.10;99.90;;;;;;4997021;28;20444;-79
2023/01/19 07:02:43;;;;;;;21.70;13.90;;;-2.00;99.90;;;;;;4999473;28;20507;-79
2023/01/19 07:05:10;;;;;;;22.80;13.30;;;-2.10;99.90;;;;;;4998523;28;20539;-79
2023/01/19 07:07:38;;;;;;;16.70;11.97;;;-2.20;99.90;;;;;;4996257;28;20471;-79
2023/01/19 07:10:06;;;;;;;22.60;13.17;;;-2.20;99.90;;;;;;4993186;28;20525;-78
2023/01/19 07:12:33;;;;;;;17.10;11.80;;;-2.10;99.90;;;;;;4989813;28;20527;-78
2023/01/19 07:15:00;;;;;;;19.10;11.67;;;-2.20;99.90;;;;;;4993438;28;20512;-79
2023/01/19 07:17:27;;;;;;;22.63;14.63;;;-2.20;99.90;;;;;;4994151;28;20548;-80
2023/01/19 07:19:56;;;;;;;22.63;12.87;;;-2.40;99.90;;;;;;4995784;28;20983;-78
2023/01/19 07:22:23;;;;;;;20.20;13.30;;;-2.20;99.90;;;;;;4994634;28;20462;-79
2023/01/19 07:24:50;;;;;;;18.53;13.83;;;-2.30;99.90;;;;;;4999225;28;20435;-79
2023/01/19 07:27:17;;;;;;;20.90;13.00;;;-2.30;99.90;;;;;;4996666;28;20456;-79
2023/01/19 07:29:44;;;;;;;14.97;11.47;;;-2.20;99.90;;;;;;5001871;28;20452;-77
2023/01/19 07:32:12;;;;;;;19.30;12.33;;;-2.40;99.90;;;;;;4999173;28;20512;-79
2023/01/19 07:34:39;;;;;;;18.97;9.67;;;-2.40;99.90;;;;;;4998974;28;20505;-76
2023/01/19 07:37:07;;;;;;;19.40;12.73;;;-2.50;99.90;;;;;;4991290;28;20471;-75
2023/01/19 07:39:35;;;;;;;20.83;12.23;;;-2.50;99.90;;;;;;4989995;28;20799;-75
2023/01/19 07:42:02;;;;;;;15.57;11.57;;;-2.50;99.90;;;;;;4989467;28;20444;-75
2023/01/19 07:44:29;;;;;;;17.50;11.23;;;-2.50;99.90;;;;;;4988952;28;20932;-75
2023/01/19 07:46:55;;;;;;;20.10;13.90;;;-2.40;99.90;;;;;;4990886;28;20461;-75
2023/01/19 07:49:22;;;;;;;28.90;13.40;;;-2.50;99.90;;;;;;4991226;28;20472;-75
2023/01/19 07:51:49;;;;;;;18.63;11.07;;;-2.50;99.90;;;;;;4992313;28;20462;-75
2023/01/19 07:54:17;;;;;;;19.73;12.10;;;-2.50;99.90;;;;;;4990687;28;20507;-74
2023/01/19 07:56:44;;;;;;;22.80;12.87;;;-2.20;99.90;;;;;;5008351;28;20452;-78
2023/01/19 07:59:11;;;;;;;24.17;11.00;;;-2.10;99.90;;;;;;5002263;28;20463;-80
2023/01/19 08:01:38;;;;;;;19.30;10.73;;;-2.20;99.90;;;;;;4999870;28;20459;-79
2023/01/19 08:04:05;;;;;;;22.17;13.00;;;-2.30;99.90;;;;;;5007306;28;20424;-79
2023/01/19 08:06:34;;;;;;;19.30;12.60;;;-2.20;99.90;;;;;;5013630;28;20483;-80
2023/01/19 08:09:04;;;;;;;22.10;13.10;;;-2.10;99.90;;;;;;5000510;28;20197;-78
2023/01/19 08:11:32;;;;;;;19.43;13.03;;;-2.10;99.90;;;;;;5001741;28;20444;-81
2023/01/19 08:14:00;;;;;;;19.93;12.17;;;-2.10;99.90;;;;;;5015429;28;20479;-80
2023/01/19 08:16:27;;;;;;;16.90;11.83;;;-2.30;99.90;;;;;;5010755;28;20463;-80
2023/01/19 08:18:53;;;;;;;23.00;12.83;;;-2.10;99.90;;;;;;5008600;28;20456;-79
2023/01/19 08:23:57;;;;;;;18.03;12.13;;;-2.20;99.90;;;;;;5104978;23;20498;-79
2023/01/19 08:26:28;;;;;;;21.27;12.37;;;-3.00;99.90;;;;;;5018545;28;20441;-79
2023/01/19 08:28:59;;;;;;;27.33;12.57;;;-1.60;99.90;;;;;;5021110;28;20432;-80
2023/01/19 08:31:26;;;;;;;18.80;11.80;;;1.00;99.90;;;;;;5016595;28;20452;-80
2023/01/19 08:33:53;;;;;;;16.90;10.80;;;-2.20;99.90;;;;;;5018897;28;20483;-80
2023/01/19 08:36:21;;;;;;;13.13;10.50;;;-2.00;99.90;;;;;;5012729;28;20515;-80
2023/01/19 08:38:48;;;;;;;20.83;11.63;;;-2.00;99.90;;;;;;5012439;28;20448;-79
2023/01/19 08:41:15;;;;;;;19.00;12.67;;;-2.00;99.90;;;;;;4997604;28;21010;-75
2023/01/19 08:43:43;;;;;;;13.33;9.40;;;-1.70;99.90;;;;;;4990574;28;20527;-76
2023/01/19 08:46:15;;;;;;;15.80;10.50;;;-1.60;99.90;;;;;;4992484;28;20456;-75
2023/01/19 08:48:44;;;;;;;15.60;10.30;;;-1.80;99.90;;;;;;4989320;28;20548;-75
2023/01/19 08:51:11;;;;;;;17.00;11.27;;;-1.90;99.90;;;;;;4989845;28;20456;-76
2023/01/19 08:53:38;;;;;;;12.93;9.20;;;-1.90;99.90;;;;;;4988715;28;20492;-76
2023/01/19 08:56:10;;;;;;;16.33;11.20;;;-1.80;99.90;;;;;;4989086;28;20468;-76
2023/01/19 08:58:37;;;;;;;13.77;8.87;;;-1.70;99.90;;;;;;4973280;28;20472;-75
2023/01/19 09:01:05;;;;;;;18.60;10.90;;;-1.80;99.90;;;;;;4970083;28;20462;-75
2023/01/19 09:03:33;;;;;;;18.03;10.63;;;-1.70;99.90;;;;;;4971312;28;20472;-76
2023/01/19 09:05:59;;;;;;;16.43;11.20;;;-1.80;99.90;;;;;;4989783;28;20971;-75
2023/01/19 09:08:26;;;;;;;14.77;10.93;;;-1.70;99.90;;;;;;5074373;23;20506;-79
2023/01/19 09:10:53;;;;;;;13.60;9.43;;;-1.80;99.90;;;;;;4999251;28;20796;-79
2023/01/19 09:13:20;;;;;;;17.83;10.90;;;-1.90;99.90;;;;;;4998512;28;20456;-75
2023/01/19 09:15:47;;;;;;;14.30;9.93;;;-1.90;99.90;;;;;;5016898;28;20436;-81
2023/01/19 09:20:51;;;;;;;21.33;12.80;;;-1.80;99.90;;;;;;5459008;23;20490;-80
2023/01/19 09:23:21;;;;;;;18.47;12.30;;;-1.60;99.90;;;;;;5031872;28;20455;-79
2023/01/19 09:25:49;;;;;;;17.40;11.37;;;-0.80;99.90;;;;;;5039578;28;20463;-80
2023/01/19 09:28:17;;;;;;;34.23;11.43;;;-1.70;99.90;;;;;;5031343;28;20506;-80
2023/01/19 09:30:44;;;;;;;16.73;11.20;;;-2.00;99.90;;;;;;5010259;28;20934;-73
2023/01/19 09:33:14;;;;;;;16.03;10.50;;;-1.70;99.90;;;;;;4999411;28;20475;-76
2023/01/19 09:35:42;;;;;;;17.33;10.70;;;-1.70;99.90;;;;;;5009779;28;20614;-75
2023/01/19 09:38:11;;;;;;;12.10;9.97;;;-1.70;99.90;;;;;;5007451;28;20459;-75
2023/01/19 09:40:42;;;;;;;16.67;10.07;;;-1.70;99.90;;;;;;5004435;28;20467;-78
2023/01/19 09:43:16;;;;;;;19.90;10.70;;;-1.50;99.90;;;;;;5015677;28;20463;-78
2023/01/19 09:45:48;;;;;;;15.47;11.20;;;-1.50;99.90;;;;;;4998255;28;20495;-76
2023/01/19 09:48:29;;;;;;;14.50;10.10;;;-1.30;99.90;;;;;;5009267;28;20474;-79
2023/01/19 09:51:00;;;;;;;10.00;8.00;;;-1.30;99.90;;;;;;5009915;28;20459;-77
2023/01/19 09:53:42;;;;;;;16.20;10.60;;;-1.40;99.90;;;;;;5008885;28;20860;-77
2023/01/19 09:56:12;;;;;;;13.10;8.50;;;-1.40;99.90;;;;;;4979744;28;20501;-78
2023/01/19 09:58:39;;;;;;;16.37;11.20;;;-1.20;99.90;;;;;;4990171;28;20460;-78
2023/01/19 10:01:15;;;;;;;12.37;7.80;;;-1.10;99.90;;;;;;4989556;28;21193;-77
2023/01/19 10:03:41;;;;;;;16.73;10.30;;;-1.20;99.90;;;;;;4977009;28;20468;-77
2023/01/19 10:06:11;;;;;;;13.20;9.50;;;-1.20;99.90;;;;;;4971797;28;20442;-77
2023/01/19 10:08:47;;;;;;;13.47;9.50;;;-1.20;99.90;;;;;;4974311;28;20453;-77
2023/01/19 10:11:28;;;;;;;17.30;9.30;;;-1.10;99.90;;;;;;4978539;28;20471;-78
2023/01/19 10:13:56;;;;;;;14.00;10.03;;;-0.80;99.90;;;;;;4983633;28;20489;-79
2023/01/19 10:16:34;;;;;;;8.80;7.53;;;-0.80;99.90;;;;;;4988076;28;20451;-78
2023/01/19 10:19:12;;;;;;;12.73;7.23;;;-0.70;99.90;;;;;;4986493;28;20462;-79
2023/01/19 10:21:43;;;;;;;11.63;6.83;;;-0.60;99.90;;;;;;4988733;28;20515;-78
2023/01/19 10:24:17;;;;;;;11.57;9.10;;;-0.70;99.90;;;;;;4988105;28;20457;-78
2023/01/19 10:26:51;;;;;;;12.57;8.90;;;-0.60;99.90;;;;;;4988891;28;20511;-79
2023/01/19 10:29:25;;;;;;;14.50;9.60;;;-0.60;99.90;;;;;;4983940;28;20559;-78
2023/01/19 10:31:57;;;;;;;14.63;8.67;;;-0.40;99.90;;;;;;4976111;28;20544;-78
2023/01/19 10:34:24;;;;;;;10.17;8.67;;;-0.40;99.90;;;;;;4988729;28;20588;-78
2023/01/19 10:37:02;;;;;;;15.87;8.03;;;-0.30;99.90;;;;;;4980154;28;20973;-78
2023/01/19 10:39:30;;;;;;;13.97;8.73;;;-0.20;99.90;;;;;;4988359;28;21059;-77
2023/01/19 10:41:59;;;;;;;9.37;8.00;;;-0.40;99.90;;;;;;4991764;28;20456;-77
2023/01/19 10:44:29;;;;;;;9.97;5.50;;;-0.40;99.90;;;;;;4985550;28;20967;-78
2023/01/19 10:46:58;;;;;;;10.13;7.30;;;-0.20;99.90;;;;;;4977842;28;20464;-77
2023/01/19 10:49:27;;;;;;;11.00;7.63;;;0.00;99.90;;;;;;5006035;28;20930;-78
2023/01/19 10:51:55;;;;;;;11.10;7.40;;;0.10;99.90;;;;;;5005247;28;20995;-79
2023/01/19 10:54:24;;;;;;;9.13;6.60;;;-0.20;99.90;;;;;;4968365;28;20490;-78
2023/01/19 10:56:55;;;;;;;9.90;6.50;;;-0.10;99.90;;;;;;4983868;28;20571;-78
2023/01/19 10:59:34;;;;;;;12.43;6.50;;;0.30;99.90;;;;;;4975264;28;20472;-78
2023/01/19 11:02:20;;;;;;;11.80;7.03;;;0.50;99.90;;;;;;4976546;28;20960;-78
2023/01/19 11:04:48;;;;;;;11.77;7.97;;;0.20;99.90;;;;;;4989669;28;20456;-78
2023/01/19 11:07:19;;;;;;;11.13;7.70;;;0.10;99.90;;;;;;4987740;28;20556;-77
2023/01/19 11:09:47;;;;;;;9.40;6.73;;;0.30;99.90;;;;;;4986614;28;20985;-77
2023/01/19 11:12:20;;;;;;;10.37;7.80;;;0.40;99.90;;;;;;4970250;28;20607;-76
2023/01/19 11:14:48;;;;;;;8.60;5.33;;;0.20;99.90;;;;;;4969205;28;20497;-78
2023/01/19 11:17:27;;;;;;;9.30;6.07;;;0.20;99.90;;;;;;4977583;28;20797;-77
2023/01/19 11:20:00;;;;;;;9.93;7.90;;;0.10;99.90;;;;;;4996453;28;20472;-79
2023/01/19 11:22:29;;;;;;;14.20;6.93;;;0.20;99.90;;;;;;4993810;28;20464;-78
2023/01/19 11:25:01;;;;;;;9.37;5.80;;;0.30;99.90;;;;;;4993072;28;20459;-77
2023/01/19 11:27:31;;;;;;;6.57;5.20;;;0.10;99.90;;;;;;4991962;28;20869;-77
2023/01/19 11:30:08;;;;;;;6.37;5.23;;;0.00;99.90;;;;;;4991263;28;20449;-78
2023/01/19 11:32:35;;;;;;;8.40;5.47;;;0.20;99.90;;;;;;4994481;28;20542;-78
2023/01/19 11:35:23;;;;;;;7.90;6.13;;;0.30;99.90;;;;;;4991817;28;20907;-77
2023/01/19 11:37:50;;;;;;;7.63;5.50;;;0.20;99.90;;;;;;4993198;28;20472;-78
2023/01/19 11:40:17;;;;;;;6.80;5.47;;;0.20;99.90;;;;;;4991979;28;20432;-77
2023/01/19 11:42:45;;;;;;;8.93;6.23;;;0.20;99.90;;;;;;4998566;28;20453;-79
2023/01/19 11:50:28;;;;;;;7.37;5.00;;;0.40;99.90;;;;;;5511286;23;20481;-91
2023/01/19 11:55:36;;;;;;;10.50;5.90;;;1.90;99.90;;;;;;5937313;23;20466;-77
2023/01/19 12:00:43;;;;;;;6.37;4.87;;;1.00;99.90;;;;;;5118745;23;20491;-81
2023/01/19 12:03:15;;;;;;;8.60;6.10;;;1.30;99.90;;;;;;4999701;28;20456;-82
2023/01/19 12:05:46;;;;;;;6.43;4.10;;;1.70;99.90;;;;;;5004195;28;20452;-82
2023/01/19 12:08:16;;;;;;;8.17;6.03;;;1.60;99.90;;;;;;5003475;28;20444;-83
2023/01/19 12:10:49;;;;;;;9.37;6.20;;;1.20;99.90;;;;;;4987239;28;20543;-83
2023/01/19 12:13:36;;;;;;;6.67;3.57;;;0.90;99.90;;;;;;4981694;28;20492;-82
2023/01/19 12:16:08;;;;;;;9.43;4.90;;;1.40;99.90;;;;;;4982760;28;20499;-84
2023/01/19 12:18:38;;;;;;;7.23;5.10;;;1.50;99.90;;;;;;4993769;28;20532;-82
2023/01/19 12:21:05;;;;;;;9.17;5.97;;;0.90;99.90;;;;;;5003902;28;20492;-79
2023/01/19 13:02:57;;;;;;;5.80;4.27;;;0.50;99.90;;;;;;6270853;22;20456;-89
2023/01/19 13:08:15;;;;;;;9.10;5.20;;;0.50;99.90;;;;;;6251917;22;20453;-88
2023/01/19 13:11:12;;;;;;;7.70;4.63;;;0.30;99.90;;;;;;6271223;23;20416;-91
2023/01/19 13:13:41;;;;;;;7.80;5.30;;;0.60;99.90;;;;;;6271814;22;20479;-88
2023/01/19 13:16:50;;;;;;;4.73;4.20;;;0.60;99.90;;;;;;6264894;23;20424;-82
2023/01/19 13:19:22;;;;;;;6.17;5.40;;;0.90;99.90;;;;;;6265379;22;21076;-82
2023/01/19 13:21:49;;;;;;;9.10;4.90;;;0.70;99.90;;;;;;6253643;23;20399;-83
2023/01/19 13:24:21;;;;;;;5.37;4.03;;;0.60;99.90;;;;;;6252639;23;20432;-81
2023/01/19 13:26:57;;;;;;;5.70;4.67;;;0.50;99.90;;;;;;6252477;23;20764;-80
2023/01/19 13:29:29;;;;;;;5.13;3.80;;;0.40;99.90;;;;;;6253907;23;20408;-82
2023/01/19 13:32:01;;;;;;;9.53;5.00;;;0.60;99.90;;;;;;6252280;23;20399;-82
2023/01/19 13:34:34;;;;;;;6.60;4.80;;;0.60;99.90;;;;;;6250235;23;20400;-81
2023/01/19 13:37:02;;;;;;;8.90;4.50;;;0.80;99.90;;;;;;6247824;23;20872;-81
2023/01/19 13:39:32;;;;;;;6.17;5.57;;;0.70;99.90;;;;;;6245045;23;20414;-81
2023/01/19 13:42:02;;;;;;;8.47;5.70;;;0.70;99.90;;;;;;6247156;22;20402;-82
2023/01/19 13:44:31;;;;;;;7.80;4.40;;;0.70;99.90;;;;;;6246504;23;20430;-81
2023/01/19 13:46:59;;;;;;;6.93;4.10;;;0.70;99.90;;;;;;6248050;23;20389;-81
2023/01/19 13:49:30;;;;;;;6.53;5.20;;;1.10;99.90;;;;;;6247720;23;20976;-81
2023/01/19 13:52:11;;;;;;;8.70;5.33;;;1.00;99.90;;;;;;6247142;23;20953;-82
2023/01/19 13:54:47;;;;;;;9.47;4.90;;;1.00;99.90;;;;;;6246874;23;20474;-82
2023/01/19 13:57:25;;;;;;;5.20;4.30;;;0.90;99.90;;;;;;6243646;23;20409;-80
2023/01/19 14:00:05;;;;;;;6.77;4.70;;;0.60;99.90;;;;;;6242735;23;20484;-80
2023/01/19 14:02:32;;;;;;;8.83;6.00;;;0.50;99.90;;;;;;6243819;23;20385;-80
2023/01/19 14:05:13;;;;;;;5.30;4.17;;;0.40;99.90;;;;;;6245744;23;20460;-80
2023/01/19 14:07:40;;;;;;;5.00;3.73;;;0.40;99.90;;;;;;6244603;23;20867;-82
2023/01/19 15:08:07;;;;;;;6.83;6.17;;;0.30;99.90;;;;;;6244951;22;20464;-83
2023/01/19 15:10:35;;;;;;;5.47;3.73;;;0.60;99.90;;;;;;6266754;22;20536;-86
2023/01/19 15:15:37;;;;;;;5.23;3.97;;;0.30;99.90;;;;;;6225996;22;20496;-80
2023/01/19 15:18:16;;;;;;;8.57;5.03;;;0.20;99.90;;;;;;6237620;22;20930;-79
2023/01/19 15:20:43;;;;;;;5.30;3.90;;;0.80;99.90;;;;;;6241431;23;20401;-78
2023/01/19 15:23:12;;;;;;;5.17;4.03;;;0.00;99.90;;;;;;6241481;23;20413;-78
2023/01/19 15:25:39;;;;;;;4.90;3.70;;;0.20;99.90;;;;;;6242258;23;20518;-78
2023/01/19 15:28:11;;;;;;;6.83;3.53;;;0.10;99.90;;;;;;6238667;23;20414;-78
2023/01/19 15:30:38;;;;;;;6.57;3.30;;;0.00;99.90;;;;;;6238129;23;20610;-78
2023/01/19 15:33:06;;;;;;;4.10;3.70;;;0.10;99.90;;;;;;6245544;22;20398;-80
2023/01/19 15:35:32;;;;;;;7.00;3.20;;;0.10;99.90;;;;;;6239782;23;20417;-79
2023/01/19 15:37:59;;;;;;;11.00;5.30;;;0.10;99.90;;;;;;6239070;23;20424;-78
2023/01/19 15:40:27;;;;;;;3.40;3.10;;;0.00;99.90;;;;;;6237527;23;20418;-79
2023/01/19 15:42:54;;;;;;;7.87;4.93;;;0.00;99.90;;;;;;6237698;23;20416;-79
2023/01/19 15:45:41;;;;;;;8.20;5.10;;;-0.10;99.90;;;;;;6237601;23;20453;-79
2023/01/19 15:48:10;;;;;;;6.60;4.33;;;-0.10;99.90;;;;;;6237375;23;20846;-78
2023/01/19 15:50:39;;;;;;;8.80;4.50;;;0.00;99.90;;;;;;6236464;23;21110;-79
2023/01/19 15:53:06;;;;;;;7.17;4.30;;;-0.10;99.90;;;;;;6238461;22;20409;-79
2023/01/19 15:55:34;;;;;;;11.60;4.90;;;-0.30;99.90;;;;;;6237656;23;20413;-79
2023/01/19 15:58:01;;;;;;;6.10;5.00;;;-0.10;99.90;;;;;;6238278;23;20409;-79
2023/01/19 16:00:29;;;;;;;7.60;4.90;;;-0.10;99.90;;;;;;6237654;23;20426;-79
2023/01/19 16:02:56;;;;;;;6.33;5.03;;;-0.10;99.90;;;;;;6238356;23;20417;-79
2023/01/19 16:05:23;;;;;;;9.93;5.47;;;-0.10;99.90;;;;;;6238831;23;20787;-79
2023/01/19 16:07:50;;;;;;;7.90;5.13;;;-0.10;99.90;;;;;;6238592;23;20420;-79
2023/01/19 16:10:18;;;;;;;6.30;5.60;;;-0.10;99.90;;;;;;6240947;22;20903;-80
2023/01/19 16:12:47;;;;;;;7.33;4.80;;;-0.10;99.90;;;;;;6242265;23;20389;-81
2023/01/19 16:15:15;;;;;;;6.43;5.83;;;-0.10;99.90;;;;;;6243105;22;20467;-79
2023/01/19 16:17:42;;;;;;;8.30;4.70;;;-0.20;99.90;;;;;;6243140;23;20504;-80
2023/01/19 16:20:10;;;;;;;7.50;5.13;;;-0.20;99.90;;;;;;6245861;23;20414;-80
2023/01/19 16:22:44;;;;;;;7.70;4.77;;;-0.20;99.90;;;;;;6243631;23;20468;-79
2023/01/19 16:25:12;;;;;;;8.00;5.10;;;-0.10;99.90;;;;;;6239826;23;20441;-80
2023/01/19 16:27:38;;;;;;;11.50;5.27;;;0.00;99.90;;;;;;6239486;23;20418;-79
2023/01/19 16:30:10;;;;;;;9.93;5.07;;;-0.20;99.90;;;;;;6247509;23;20414;-79
2023/01/19 16:32:37;;;;;;;8.77;4.07;;;-0.20;99.90;;;;;;6254436;23;20772;-79
2023/01/19 16:35:04;;;;;;;10.97;5.23;;;-0.20;99.90;;;;;;6253737;23;20466;-80
2023/01/19 16:37:31;;;;;;;6.27;4.40;;;-0.20;99.90;;;;;;6250635;23;20409;-78
2023/01/19 16:39:59;;;;;;;7.80;4.37;;;-0.30;99.90;;;;;;6246664;23;20471;-79
2023/01/19 16:42:26;;;;;;;4.07;3.67;;;-0.40;99.90;;;;;;6246920;23;20454;-79
2023/01/19 16:44:53;;;;;;;7.93;4.60;;;-0.30;99.90;;;;;;6252326;23;20504;-80
2023/01/19 16:47:21;;;;;;;6.90;4.20;;;-0.20;99.90;;;;;;6256439;23;20412;-79
2023/01/19 16:49:48;;;;;;;5.67;4.77;;;-0.30;99.90;;;;;;6253590;22;20749;-81
2023/01/19 16:52:15;;;;;;;6.20;3.97;;;-0.30;99.90;;;;;;6246525;23;20484;-79
2023/01/19 16:54:42;;;;;;;5.43;3.80;;;-0.20;99.90;;;;;;6241008;23;20470;-79
2023/01/19 16:57:10;;;;;;;5.97;4.33;;;0.40;99.90;;;;;;6246236;23;20432;-79
2023/01/19 16:59:38;;;;;;;8.20;5.57;;;-0.20;99.90;;;;;;6244591;23;20405;-79
2023/01/19 17:02:05;;;;;;;10.00;4.70;;;-0.30;99.90;;;;;;6242584;23;20485;-79
2023/01/19 17:04:33;;;;;;;9.40;4.97;;;-0.40;99.90;;;;;;6241578;23;20413;-80
2023/01/19 17:07:00;;;;;;;8.03;5.87;;;-0.30;99.90;;;;;;6239524;23;20448;-80
2023/01/19 17:09:27;;;;;;;8.17;5.00;;;-0.30;99.90;;;;;;6238018;23;20419;-80
2023/01/19 17:11:54;;;;;;;6.10;5.50;;;-0.30;99.90;;;;;;6239996;23;20479;-80
2023/01/19 17:14:21;;;;;;;12.30;5.50;;;-0.30;99.90;;;;;;6240626;23;20418;-80
2023/01/19 17:16:49;;;;;;;9.70;6.13;;;-0.30;99.90;;;;;;6240844;22;20405;-80
2023/01/19 17:19:19;;;;;;;6.80;5.57;;;-0.30;99.90;;;;;;6240443;23;20459;-80
2023/01/19 17:21:48;;;;;;;18.10;7.13;;;-0.40;99.90;;;;;;6240475;23;20436;-82
2023/01/19 17:24:16;;;;;;;7.80;5.10;;;-0.40;99.90;;;;;;6240674;23;20420;-81
2023/01/19 17:26:47;;;;;;;8.30;4.70;;;-0.60;99.90;;;;;;6240634;23;20455;-80
2023/01/19 17:29:15;;;;;;;8.20;4.87;;;-0.40;99.90;;;;;;6240146;22;20408;-80
2023/01/19 17:31:43;;;;;;;9.43;5.10;;;-0.40;99.90;;;;;;6240527;23;20448;-79